sensor_id;sensor_type;location;lat;lon;timestamp;noise_LAeq;noise_LA_min;noise_LA_max;noise_LA01;noise_LA95
69668;Laerm;66534;52.370;4.832;2023-11-21T00:00:16;44.72;37.29;64.68;;
69668;Laerm;66534;52.370;4.832;2023-11-21T00:00:46;41.55;37.61;53.03;;
69668;Laerm;66534;52.370;4.832;2023-11-21T00:01:17;43.29;38.61;52.80;;
69668;Laerm;66534;52.370;4.832;2023-11-21T00:01:47;41.72;37.63;57.79;;
69668;Laerm;66534;52.370;4.832;2023-11-21T00:02:18;42.67;38.55;45.98;;
69668;Laerm;66534;52.370;4.832;2023-11-21T00:02:48;42.29;38.32;52.12;;
69668;Laerm;66534;52.370;4.832;2023-11-21T00:03:18;40.99;37.49;47.86;;
69668;Laerm;66534;52.370;4.832;2023-11-21T00:03:49;40.60;38.03;47.36;;
69668;Laerm;66534;52.370;4.832;2023-11-21T00:04:20;44.66;39.65;49.44;;
69668;Laerm;66534;52.370;4.832;2023-11-21T00:04:50;47.24;40.92;51.92;;
69668;Laerm;66534;52.370;4.832;2023-11-21T00:05:21;44.06;40.71;49.67;;
69668;Laerm;66534;52.370;4.832;2023-11-21T00:05:53;41.07;38.12;46.33;;
69668;Laerm;66534;52.370;4.832;2023-11-21T00:06:23;41.76;37.44;48.18;;
69668;Laerm;66534;52.370;4.832;2023-11-21T00:06:54;42.37;38.00;47.36;;
69668;Laerm;66534;52.370;4.832;2023-11-21T00:07:24;42.15;39.49;52.28;;
69668;Laerm;66534;52.370;4.832;2023-11-21T00:07:55;46.38;39.52;55.87;;
69668;Laerm;66534;52.370;4.832;2023-11-21T00:08:25;46.11;40.13;52.23;;
69668;Laerm;66534;52.370;4.832;2023-11-21T00:08:56;42.54;36.42;48.58;;
69668;Laerm;66534;52.370;4.832;2023-11-21T00:09:26;43.06;38.17;48.85;;
69668;Laerm;66534;52.370;4.832;2023-11-21T00:09:57;42.90;37.87;62.75;;
69668;Laerm;66534;52.370;4.832;2023-11-21T00:10:27;42.27;38.45;45.72;;
69668;Laerm;66534;52.370;4.832;2023-11-21T00:10:58;42.74;37.64;51.70;;
69668;Laerm;66534;52.370;4.832;2023-11-21T00:11:30;40.23;37.28;46.86;;
69668;Laerm;66534;52.370;4.832;2023-11-21T00:12:00;42.81;38.64;47.78;;
69668;Laerm;66534;52.370;4.832;2023-11-21T00:12:31;40.93;36.88;45.85;;
69668;Laerm;66534;52.370;4.832;2023-11-21T00:13:01;40.61;37.41;47.36;;
69668;Laerm;66534;52.370;4.832;2023-11-21T00:13:33;39.58;36.57;44.11;;
69668;Laerm;66534;52.370;4.832;2023-11-21T00:14:03;39.48;36.72;48.18;;
69668;Laerm;66534;52.370;4.832;2023-11-21T00:14:34;41.87;36.75;51.76;;
69668;Laerm;66534;52.370;4.832;2023-11-21T00:15:04;39.56;36.73;45.56;;
69668;Laerm;66534;52.370;4.832;2023-11-21T00:15:35;40.99;37.15;45.35;;
69668;Laerm;66534;52.370;4.832;2023-11-21T00:16:05;40.74;36.95;48.21;;
69668;Laerm;66534;52.370;4.832;2023-11-21T00:16:37;47.34;38.34;60.27;;
69668;Laerm;66534;52.370;4.832;2023-11-21T00:17:07;38.93;36.35;45.24;;
69668;Laerm;66534;52.370;4.832;2023-11-21T00:17:38;45.90;35.90;54.59;;
69668;Laerm;66534;52.370;4.832;2023-11-21T00:18:08;48.60;42.23;56.00;;
69668;Laerm;66534;52.370;4.832;2023-11-21T00:18:38;47.74;41.31;53.62;;
69668;Laerm;66534;52.370;4.832;2023-11-21T00:19:09;42.74;39.79;52.68;;
69668;Laerm;66534;52.370;4.832;2023-11-21T00:19:39;47.92;37.21;56.03;;
69668;Laerm;66534;52.370;4.832;2023-11-21T00:20:10;38.39;36.47;43.91;;
69668;Laerm;66534;52.370;4.832;2023-11-21T00:20:42;39.77;36.17;49.55;;
69668;Laerm;66534;52.370;4.832;2023-11-21T00:21:13;39.63;36.98;48.08;;
69668;Laerm;66534;52.370;4.832;2023-11-21T00:21:43;42.75;37.64;48.57;;
69668;Laerm;66534;52.370;4.832;2023-11-21T00:22:14;41.93;38.59;47.39;;
69668;Laerm;66534;52.370;4.832;2023-11-21T00:22:46;41.94;36.65;50.22;;
69668;Laerm;66534;52.370;4.832;2023-11-21T00:23:16;39.45;36.06;54.43;;
69668;Laerm;66534;52.370;4.832;2023-11-21T00:23:48;40.90;37.40;52.01;;
69668;Laerm;66534;52.370;4.832;2023-11-21T00:24:18;40.35;36.90;45.36;;
69668;Laerm;66534;52.370;4.832;2023-11-21T00:24:48;43.02;37.01;57.75;;
69668;Laerm;66534;52.370;4.832;2023-11-21T00:25:18;46.20;37.28;53.66;;
69668;Laerm;66534;52.370;4.832;2023-11-21T00:25:50;48.91;39.44;58.72;;
69668;Laerm;66534;52.370;4.832;2023-11-21T00:26:20;38.96;35.90;46.24;;
69668;Laerm;66534;52.370;4.832;2023-11-21T00:26:50;41.95;38.03;49.58;;
69668;Laerm;66534;52.370;4.832;2023-11-21T00:27:21;42.45;38.06;58.29;;
69668;Laerm;66534;52.370;4.832;2023-11-21T00:27:51;40.91;36.42;47.00;;
69668;Laerm;66534;52.370;4.832;2023-11-21T00:28:21;38.30;35.91;41.56;;
69668;Laerm;66534;52.370;4.832;2023-11-21T00:28:52;38.21;35.58;47.11;;
69668;Laerm;66534;52.370;4.832;2023-11-21T00:29:23;39.10;35.63;44.35;;
69668;Laerm;66534;52.370;4.832;2023-11-21T00:29:53;42.57;38.56;46.57;;
69668;Laerm;66534;52.370;4.832;2023-11-21T00:30:23;44.60;38.92;49.81;;
69668;Laerm;66534;52.370;4.832;2023-11-21T00:30:54;42.07;38.62;50.11;;
69668;Laerm;66534;52.370;4.832;2023-11-21T00:31:24;40.90;37.50;46.09;;
69668;Laerm;66534;52.370;4.832;2023-11-21T00:31:54;39.31;36.03;47.21;;
69668;Laerm;66534;52.370;4.832;2023-11-21T00:32:25;39.85;35.60;48.65;;
69668;Laerm;66534;52.370;4.832;2023-11-21T00:32:55;40.13;36.42;47.16;;
69668;Laerm;66534;52.370;4.832;2023-11-21T00:33:25;38.72;35.99;45.36;;
69668;Laerm;66534;52.370;4.832;2023-11-21T00:33:57;39.96;36.02;44.79;;
69668;Laerm;66534;52.370;4.832;2023-11-21T00:34:27;39.61;35.76;45.48;;
69668;Laerm;66534;52.370;4.832;2023-11-21T00:34:58;47.42;39.34;58.08;;
69668;Laerm;66534;52.370;4.832;2023-11-21T00:35:29;44.83;39.49;57.83;;
69668;Laerm;66534;52.370;4.832;2023-11-21T00:35:59;39.91;37.40;50.88;;
69668;Laerm;66534;52.370;4.832;2023-11-21T00:36:31;40.70;37.71;46.93;;
69668;Laerm;66534;52.370;4.832;2023-11-21T00:37:02;41.26;37.40;45.55;;
69668;Laerm;66534;52.370;4.832;2023-11-21T00:37:33;48.71;40.08;57.28;;
69668;Laerm;66534;52.370;4.832;2023-11-21T00:38:03;41.01;38.21;45.21;;
69668;Laerm;66534;52.370;4.832;2023-11-21T00:38:33;40.84;36.96;45.64;;
69668;Laerm;66534;52.370;4.832;2023-11-21T00:39:04;41.01;36.37;46.49;;
69668;Laerm;66534;52.370;4.832;2023-11-21T00:39:35;39.22;35.73;45.86;;
69668;Laerm;66534;52.370;4.832;2023-11-21T00:40:06;41.83;37.52;48.26;;
69668;Laerm;66534;52.370;4.832;2023-11-21T00:40:39;44.42;41.51;49.52;;
69668;Laerm;66534;52.370;4.832;2023-11-21T00:41:09;43.05;39.44;49.49;;
69668;Laerm;66534;52.370;4.832;2023-11-21T00:41:39;40.60;36.41;43.92;;
69668;Laerm;66534;52.370;4.832;2023-11-21T00:42:10;38.63;36.02;42.76;;
69668;Laerm;66534;52.370;4.832;2023-11-21T00:42:41;40.74;36.70;45.02;;
69668;Laerm;66534;52.370;4.832;2023-11-21T00:43:11;41.75;36.85;47.98;;
69668;Laerm;66534;52.370;4.832;2023-11-21T00:43:41;41.40;36.02;47.65;;
69668;Laerm;66534;52.370;4.832;2023-11-21T00:44:12;40.32;37.00;46.28;;
69668;Laerm;66534;52.370;4.832;2023-11-21T00:44:42;41.55;37.05;51.05;;
69668;Laerm;66534;52.370;4.832;2023-11-21T00:45:12;38.32;35.14;43.60;;
69668;Laerm;66534;52.370;4.832;2023-11-21T00:45:43;36.59;34.99;38.54;;
69668;Laerm;66534;52.370;4.832;2023-11-21T00:46:13;43.37;35.43;51.74;;
69668;Laerm;66534;52.370;4.832;2023-11-21T00:46:43;38.70;35.17;42.67;;
69668;Laerm;66534;52.370;4.832;2023-11-21T00:47:14;36.29;34.43;38.52;;
69668;Laerm;66534;52.370;4.832;2023-11-21T00:47:44;37.06;34.52;42.02;;
69668;Laerm;66534;52.370;4.832;2023-11-21T00:48:14;38.38;35.69;44.69;;
69668;Laerm;66534;52.370;4.832;2023-11-21T00:48:45;43.50;37.27;54.92;;
69668;Laerm;66534;52.370;4.832;2023-11-21T00:49:15;45.29;36.25;57.26;;
69668;Laerm;66534;52.370;4.832;2023-11-21T00:49:45;39.27;35.81;45.01;;
69668;Laerm;66534;52.370;4.832;2023-11-21T00:50:16;38.43;36.05;41.73;;
69668;Laerm;66534;52.370;4.832;2023-11-21T00:50:46;41.49;35.88;47.80;;
69668;Laerm;66534;52.370;4.832;2023-11-21T00:51:17;40.63;36.84;44.48;;
69668;Laerm;66534;52.370;4.832;2023-11-21T00:51:47;47.61;37.63;56.82;;
69668;Laerm;66534;52.370;4.832;2023-11-21T00:52:17;40.98;37.09;54.12;;
69668;Laerm;66534;52.370;4.832;2023-11-21T00:52:47;41.15;37.51;47.60;;
69668;Laerm;66534;52.370;4.832;2023-11-21T00:53:18;39.08;36.32;47.58;;
69668;Laerm;66534;52.370;4.832;2023-11-21T00:53:48;39.95;34.98;52.28;;
69668;Laerm;66534;52.370;4.832;2023-11-21T00:54:19;40.78;35.19;53.45;;
69668;Laerm;66534;52.370;4.832;2023-11-21T00:54:49;41.33;36.68;48.04;;
69668;Laerm;66534;52.370;4.832;2023-11-21T00:55:19;40.08;35.90;46.25;;
69668;Laerm;66534;52.370;4.832;2023-11-21T00:55:51;37.61;34.26;49.28;;
69668;Laerm;66534;52.370;4.832;2023-11-21T00:56:27;40.61;35.28;48.45;;
69668;Laerm;66534;52.370;4.832;2023-11-21T00:56:57;43.49;36.62;49.88;;
69668;Laerm;66534;52.370;4.832;2023-11-21T00:57:27;41.47;37.07;49.06;;
69668;Laerm;66534;52.370;4.832;2023-11-21T00:57:58;38.61;34.89;44.62;;
69668;Laerm;66534;52.370;4.832;2023-11-21T00:58:34;40.40;34.99;48.58;;
69668;Laerm;66534;52.370;4.832;2023-11-21T00:59:05;44.89;36.19;57.12;;
69668;Laerm;66534;52.370;4.832;2023-11-21T00:59:37;43.03;37.17;57.69;;
69668;Laerm;66534;52.370;4.832;2023-11-21T01:00:07;38.29;35.35;52.91;;
69668;Laerm;66534;52.370;4.832;2023-11-21T01:00:43;41.83;35.16;51.07;;
69668;Laerm;66534;52.370;4.832;2023-11-21T01:01:13;37.76;35.53;43.05;;
69668;Laerm;66534;52.370;4.832;2023-11-21T01:01:44;38.10;34.96;45.97;;
69668;Laerm;66534;52.370;4.832;2023-11-21T01:02:14;38.94;33.81;48.85;;
69668;Laerm;66534;52.370;4.832;2023-11-21T01:02:45;44.88;38.27;52.47;;
69668;Laerm;66534;52.370;4.832;2023-11-21T01:03:15;40.96;36.54;46.19;;
69668;Laerm;66534;52.370;4.832;2023-11-21T01:03:46;41.34;36.63;46.86;;
69668;Laerm;66534;52.370;4.832;2023-11-21T01:04:16;38.63;35.92;45.52;;
69668;Laerm;66534;52.370;4.832;2023-11-21T01:04:47;38.89;35.80;44.69;;
69668;Laerm;66534;52.370;4.832;2023-11-21T01:05:18;40.62;36.73;44.42;;
69668;Laerm;66534;52.370;4.832;2023-11-21T01:05:48;43.40;38.69;48.55;;
69668;Laerm;66534;52.370;4.832;2023-11-21T01:06:20;40.34;36.79;54.60;;
69668;Laerm;66534;52.370;4.832;2023-11-21T01:06:50;42.30;35.72;49.84;;
69668;Laerm;66534;52.370;4.832;2023-11-21T01:07:20;36.72;34.69;49.31;;
69668;Laerm;66534;52.370;4.832;2023-11-21T01:07:51;38.61;34.39;45.24;;
69668;Laerm;66534;52.370;4.832;2023-11-21T01:08:21;39.02;35.18;49.93;;
69668;Laerm;66534;52.370;4.832;2023-11-21T01:08:51;39.82;34.61;49.13;;
69668;Laerm;66534;52.370;4.832;2023-11-21T01:09:22;38.38;35.52;47.01;;
69668;Laerm;66534;52.370;4.832;2023-11-21T01:09:52;46.72;35.07;58.09;;
69668;Laerm;66534;52.370;4.832;2023-11-21T01:10:23;39.76;35.22;49.08;;
69668;Laerm;66534;52.370;4.832;2023-11-21T01:10:53;41.83;36.52;51.04;;
69668;Laerm;66534;52.370;4.832;2023-11-21T01:11:23;40.00;36.16;45.33;;
69668;Laerm;66534;52.370;4.832;2023-11-21T01:11:56;40.69;35.92;46.72;;
69668;Laerm;66534;52.370;4.832;2023-11-21T01:12:27;37.48;34.28;45.66;;
69668;Laerm;66534;52.370;4.832;2023-11-21T01:12:57;36.38;33.95;53.51;;
69668;Laerm;66534;52.370;4.832;2023-11-21T01:13:28;35.69;33.26;38.18;;
69668;Laerm;66534;52.370;4.832;2023-11-21T01:13:58;38.62;34.50;48.94;;
69668;Laerm;66534;52.370;4.832;2023-11-21T01:14:30;39.20;34.51;45.49;;
69668;Laerm;66534;52.370;4.832;2023-11-21T01:15:00;35.69;33.70;42.69;;
69668;Laerm;66534;52.370;4.832;2023-11-21T01:15:30;37.24;33.81;46.39;;
69668;Laerm;66534;52.370;4.832;2023-11-21T01:16:01;36.78;33.82;43.06;;
69668;Laerm;66534;52.370;4.832;2023-11-21T01:16:31;40.57;33.99;49.96;;
69668;Laerm;66534;52.370;4.832;2023-11-21T01:17:02;42.32;36.49;49.67;;
69668;Laerm;66534;52.370;4.832;2023-11-21T01:17:34;39.54;36.03;43.37;;
69668;Laerm;66534;52.370;4.832;2023-11-21T01:18:05;37.28;34.83;52.62;;
69668;Laerm;66534;52.370;4.832;2023-11-21T01:18:35;37.81;34.44;46.48;;
69668;Laerm;66534;52.370;4.832;2023-11-21T01:19:06;37.16;33.79;42.41;;
69668;Laerm;66534;52.370;4.832;2023-11-21T01:19:36;38.57;34.86;45.16;;
69668;Laerm;66534;52.370;4.832;2023-11-21T01:20:07;36.17;34.23;43.76;;
69668;Laerm;66534;52.370;4.832;2023-11-21T01:20:42;38.87;34.09;49.27;;
69668;Laerm;66534;52.370;4.832;2023-11-21T01:21:12;37.85;33.98;44.90;;
69668;Laerm;66534;52.370;4.832;2023-11-21T01:21:43;36.12;34.21;41.83;;
69668;Laerm;66534;52.370;4.832;2023-11-21T01:22:13;38.52;34.95;46.46;;
69668;Laerm;66534;52.370;4.832;2023-11-21T01:22:43;43.69;35.27;57.51;;
69668;Laerm;66534;52.370;4.832;2023-11-21T01:23:14;42.30;35.44;50.11;;
69668;Laerm;66534;52.370;4.832;2023-11-21T01:23:45;52.51;37.84;61.76;;
69668;Laerm;66534;52.370;4.832;2023-11-21T01:24:15;63.99;49.59;72.27;;
69668;Laerm;66534;52.370;4.832;2023-11-21T01:24:45;60.02;42.41;69.15;;
69668;Laerm;66534;52.370;4.832;2023-11-21T01:25:15;46.20;40.62;57.74;;
69668;Laerm;66534;52.370;4.832;2023-11-21T01:25:46;57.45;44.76;63.97;;
69668;Laerm;66534;52.370;4.832;2023-11-21T01:26:16;52.33;45.02;64.71;;
69668;Laerm;66534;52.370;4.832;2023-11-21T01:26:47;42.30;38.30;49.06;;
69668;Laerm;66534;52.370;4.832;2023-11-21T01:27:17;40.84;35.74;49.04;;
69668;Laerm;66534;52.370;4.832;2023-11-21T01:27:48;38.82;35.34;47.03;;
69668;Laerm;66534;52.370;4.832;2023-11-21T01:28:19;41.52;34.95;49.21;;
69668;Laerm;66534;52.370;4.832;2023-11-21T01:28:49;37.70;35.27;42.03;;
69668;Laerm;66534;52.370;4.832;2023-11-21T01:29:20;38.18;35.09;42.89;;
69668;Laerm;66534;52.370;4.832;2023-11-21T01:29:50;41.82;35.61;51.38;;
69668;Laerm;66534;52.370;4.832;2023-11-21T01:30:23;39.79;34.70;46.45;;
69668;Laerm;66534;52.370;4.832;2023-11-21T01:30:53;38.36;33.82;48.74;;
69668;Laerm;66534;52.370;4.832;2023-11-21T01:31:26;37.78;34.49;46.41;;
69668;Laerm;66534;52.370;4.832;2023-11-21T01:31:59;48.12;36.08;63.79;;
69668;Laerm;66534;52.370;4.832;2023-11-21T01:32:29;40.52;34.95;46.96;;
69668;Laerm;66534;52.370;4.832;2023-11-21T01:33:00;37.83;34.80;50.34;;
69668;Laerm;66534;52.370;4.832;2023-11-21T01:33:30;39.55;35.59;45.10;;
69668;Laerm;66534;52.370;4.832;2023-11-21T01:34:00;40.40;35.95;47.70;;
69668;Laerm;66534;52.370;4.832;2023-11-21T01:34:31;37.47;35.20;42.19;;
69668;Laerm;66534;52.370;4.832;2023-11-21T01:35:01;36.87;34.77;42.14;;
69668;Laerm;66534;52.370;4.832;2023-11-21T01:35:31;40.90;35.07;47.97;;
69668;Laerm;66534;52.370;4.832;2023-11-21T01:36:01;39.92;35.71;49.14;;
69668;Laerm;66534;52.370;4.832;2023-11-21T01:36:32;36.18;34.36;43.13;;
69668;Laerm;66534;52.370;4.832;2023-11-21T01:37:02;36.65;34.17;41.26;;
69668;Laerm;66534;52.370;4.832;2023-11-21T01:37:34;37.63;33.83;49.34;;
69668;Laerm;66534;52.370;4.832;2023-11-21T01:38:05;37.71;35.12;42.75;;
69668;Laerm;66534;52.370;4.832;2023-11-21T01:38:38;36.39;34.24;42.58;;
69668;Laerm;66534;52.370;4.832;2023-11-21T01:39:08;37.76;34.75;47.88;;
69668;Laerm;66534;52.370;4.832;2023-11-21T01:39:43;37.48;35.12;44.00;;
69668;Laerm;66534;52.370;4.832;2023-11-21T01:40:14;38.41;34.88;49.03;;
69668;Laerm;66534;52.370;4.832;2023-11-21T01:40:44;40.57;35.56;44.78;;
69668;Laerm;66534;52.370;4.832;2023-11-21T01:41:14;38.46;35.20;43.92;;
69668;Laerm;66534;52.370;4.832;2023-11-21T01:41:45;40.26;34.90;47.47;;
69668;Laerm;66534;52.370;4.832;2023-11-21T01:42:15;41.07;35.59;47.28;;
69668;Laerm;66534;52.370;4.832;2023-11-21T01:42:45;38.65;36.19;41.95;;
69668;Laerm;66534;52.370;4.832;2023-11-21T01:43:17;43.67;38.78;48.32;;
69668;Laerm;66534;52.370;4.832;2023-11-21T01:43:47;40.85;36.60;47.61;;
69668;Laerm;66534;52.370;4.832;2023-11-21T01:44:18;37.76;35.44;43.34;;
69668;Laerm;66534;52.370;4.832;2023-11-21T01:44:49;38.46;35.52;52.35;;
69668;Laerm;66534;52.370;4.832;2023-11-21T01:45:19;37.01;34.54;45.49;;
69668;Laerm;66534;52.370;4.832;2023-11-21T01:45:50;37.39;34.82;48.96;;
69668;Laerm;66534;52.370;4.832;2023-11-21T01:46:21;38.99;34.53;49.76;;
69668;Laerm;66534;52.370;4.832;2023-11-21T01:46:55;36.59;34.57;40.12;;
69668;Laerm;66534;52.370;4.832;2023-11-21T01:47:27;38.28;34.34;49.21;;
69668;Laerm;66534;52.370;4.832;2023-11-21T01:47:58;37.49;34.89;43.37;;
69668;Laerm;66534;52.370;4.832;2023-11-21T01:48:28;39.09;35.82;52.41;;
69668;Laerm;66534;52.370;4.832;2023-11-21T01:48:59;43.03;36.01;58.38;;
69668;Laerm;66534;52.370;4.832;2023-11-21T01:49:29;37.38;35.26;52.41;;
69668;Laerm;66534;52.370;4.832;2023-11-21T01:49:59;37.13;35.01;42.92;;
69668;Laerm;66534;52.370;4.832;2023-11-21T01:50:30;36.87;35.26;40.36;;
69668;Laerm;66534;52.370;4.832;2023-11-21T01:51:01;40.07;35.09;46.30;;
69668;Laerm;66534;52.370;4.832;2023-11-21T01:51:31;43.86;34.58;50.97;;
69668;Laerm;66534;52.370;4.832;2023-11-21T01:52:03;36.70;34.56;42.83;;
69668;Laerm;66534;52.370;4.832;2023-11-21T01:52:34;39.01;34.48;56.71;;
69668;Laerm;66534;52.370;4.832;2023-11-21T01:53:05;44.88;36.17;58.11;;
69668;Laerm;66534;52.370;4.832;2023-11-21T01:53:36;40.40;35.31;45.68;;
69668;Laerm;66534;52.370;4.832;2023-11-21T01:54:07;39.45;35.34;45.09;;
69668;Laerm;66534;52.370;4.832;2023-11-21T01:54:37;45.30;36.38;51.71;;
69668;Laerm;66534;52.370;4.832;2023-11-21T01:55:08;41.03;35.93;47.59;;
69668;Laerm;66534;52.370;4.832;2023-11-21T01:55:44;39.67;35.18;45.42;;
69668;Laerm;66534;52.370;4.832;2023-11-21T01:56:15;37.23;34.70;45.73;;
69668;Laerm;66534;52.370;4.832;2023-11-21T01:56:46;39.06;35.27;46.09;;
69668;Laerm;66534;52.370;4.832;2023-11-21T01:57:18;38.07;33.86;42.60;;
69668;Laerm;66534;52.370;4.832;2023-11-21T01:57:49;39.92;34.60;47.95;;
69668;Laerm;66534;52.370;4.832;2023-11-21T01:58:19;38.23;34.92;48.20;;
69668;Laerm;66534;52.370;4.832;2023-11-21T01:58:50;38.78;35.16;49.08;;
69668;Laerm;66534;52.370;4.832;2023-11-21T01:59:21;41.92;37.90;48.43;;
69668;Laerm;66534;52.370;4.832;2023-11-21T01:59:52;37.14;33.27;41.36;;
69668;Laerm;66534;52.370;4.832;2023-11-21T02:00:24;35.96;33.41;39.69;;
69668;Laerm;66534;52.370;4.832;2023-11-21T02:00:54;38.43;35.53;42.97;;
69668;Laerm;66534;52.370;4.832;2023-11-21T02:01:25;38.70;34.90;53.64;;
69668;Laerm;66534;52.370;4.832;2023-11-21T02:01:56;38.33;34.76;51.06;;
69668;Laerm;66534;52.370;4.832;2023-11-21T02:02:26;37.08;34.65;41.21;;
69668;Laerm;66534;52.370;4.832;2023-11-21T02:02:56;36.53;33.89;45.25;;
69668;Laerm;66534;52.370;4.832;2023-11-21T02:03:28;36.85;34.17;39.83;;
69668;Laerm;66534;52.370;4.832;2023-11-21T02:03:58;35.81;33.86;40.84;;
69668;Laerm;66534;52.370;4.832;2023-11-21T02:04:28;35.69;33.77;41.00;;
69668;Laerm;66534;52.370;4.832;2023-11-21T02:04:59;36.55;34.58;40.84;;
69668;Laerm;66534;52.370;4.832;2023-11-21T02:05:29;38.01;34.68;43.04;;
69668;Laerm;66534;52.370;4.832;2023-11-21T02:06:00;40.59;34.68;51.95;;
69668;Laerm;66534;52.370;4.832;2023-11-21T02:06:30;37.53;33.95;47.33;;
69668;Laerm;66534;52.370;4.832;2023-11-21T02:07:01;37.27;34.42;46.32;;
69668;Laerm;66534;52.370;4.832;2023-11-21T02:07:31;39.70;35.61;48.28;;
69668;Laerm;66534;52.370;4.832;2023-11-21T02:08:02;36.91;33.78;39.72;;
69668;Laerm;66534;52.370;4.832;2023-11-21T02:08:33;36.05;33.24;42.84;;
69668;Laerm;66534;52.370;4.832;2023-11-21T02:09:03;38.20;34.60;48.60;;
69668;Laerm;66534;52.370;4.832;2023-11-21T02:09:34;48.83;37.96;60.26;;
69668;Laerm;66534;52.370;4.832;2023-11-21T02:10:08;46.13;36.14;52.65;;
69668;Laerm;66534;52.370;4.832;2023-11-21T02:10:38;40.07;35.13;47.40;;
69668;Laerm;66534;52.370;4.832;2023-11-21T02:11:09;38.08;36.03;40.08;;
69668;Laerm;66534;52.370;4.832;2023-11-21T02:11:40;37.84;35.20;45.54;;
69668;Laerm;66534;52.370;4.832;2023-11-21T02:12:10;37.31;34.80;42.97;;
69668;Laerm;66534;52.370;4.832;2023-11-21T02:12:41;37.64;34.54;41.47;;
69668;Laerm;66534;52.370;4.832;2023-11-21T02:13:12;38.09;34.15;43.02;;
69668;Laerm;66534;52.370;4.832;2023-11-21T02:13:42;35.59;33.84;38.00;;
69668;Laerm;66534;52.370;4.832;2023-11-21T02:14:13;41.40;34.90;49.81;;
69668;Laerm;66534;52.370;4.832;2023-11-21T02:14:44;37.32;34.44;42.57;;
69668;Laerm;66534;52.370;4.832;2023-11-21T02:15:14;37.16;34.46;44.46;;
69668;Laerm;66534;52.370;4.832;2023-11-21T02:15:45;36.51;34.43;38.30;;
69668;Laerm;66534;52.370;4.832;2023-11-21T02:16:15;36.70;34.53;40.56;;
69668;Laerm;66534;52.370;4.832;2023-11-21T02:16:46;39.74;35.71;45.05;;
69668;Laerm;66534;52.370;4.832;2023-11-21T02:17:19;37.17;34.32;44.67;;
69668;Laerm;66534;52.370;4.832;2023-11-21T02:17:50;37.40;34.13;45.20;;
69668;Laerm;66534;52.370;4.832;2023-11-21T02:18:23;35.80;33.62;38.95;;
69668;Laerm;66534;52.370;4.832;2023-11-21T02:18:53;37.83;34.39;43.84;;
69668;Laerm;66534;52.370;4.832;2023-11-21T02:19:24;45.34;35.38;61.86;;
69668;Laerm;66534;52.370;4.832;2023-11-21T02:19:59;38.23;35.14;46.42;;
69668;Laerm;66534;52.370;4.832;2023-11-21T02:20:30;38.39;34.62;44.39;;
69668;Laerm;66534;52.370;4.832;2023-11-21T02:21:00;36.31;34.29;39.41;;
69668;Laerm;66534;52.370;4.832;2023-11-21T02:21:32;36.03;33.06;39.40;;
69668;Laerm;66534;52.370;4.832;2023-11-21T02:22:03;37.05;34.55;43.39;;
69668;Laerm;66534;52.370;4.832;2023-11-21T02:22:36;36.83;34.89;42.49;;
69668;Laerm;66534;52.370;4.832;2023-11-21T02:23:08;37.06;34.13;42.71;;
69668;Laerm;66534;52.370;4.832;2023-11-21T02:23:38;38.69;34.95;42.83;;
69668;Laerm;66534;52.370;4.832;2023-11-21T02:24:12;37.03;34.98;39.75;;
69668;Laerm;66534;52.370;4.832;2023-11-21T02:24:43;37.84;35.71;41.11;;
69668;Laerm;66534;52.370;4.832;2023-11-21T02:25:13;41.13;35.49;48.22;;
69668;Laerm;66534;52.370;4.832;2023-11-21T02:25:47;39.57;35.11;47.18;;
69668;Laerm;66534;52.370;4.832;2023-11-21T02:26:18;38.35;35.37;43.26;;
69668;Laerm;66534;52.370;4.832;2023-11-21T02:26:50;36.80;34.68;41.37;;
69668;Laerm;66534;52.370;4.832;2023-11-21T02:27:25;36.63;34.05;41.18;;
69668;Laerm;66534;52.370;4.832;2023-11-21T02:27:57;42.65;34.76;57.34;;
69668;Laerm;66534;52.370;4.832;2023-11-21T02:28:28;43.14;36.55;53.14;;
69668;Laerm;66534;52.370;4.832;2023-11-21T02:28:59;40.45;35.32;51.69;;
69668;Laerm;66534;52.370;4.832;2023-11-21T02:29:29;38.36;35.29;44.13;;
69668;Laerm;66534;52.370;4.832;2023-11-21T02:29:59;39.09;35.14;45.64;;
69668;Laerm;66534;52.370;4.832;2023-11-21T02:30:31;39.96;36.76;43.69;;
69668;Laerm;66534;52.370;4.832;2023-11-21T02:31:04;36.69;34.09;42.57;;
69668;Laerm;66534;52.370;4.832;2023-11-21T02:31:34;36.27;34.30;43.06;;
69668;Laerm;66534;52.370;4.832;2023-11-21T02:32:05;41.13;36.73;47.75;;
69668;Laerm;66534;52.370;4.832;2023-11-21T02:32:35;42.12;37.83;53.56;;
69668;Laerm;66534;52.370;4.832;2023-11-21T02:33:05;41.86;35.61;48.74;;
69668;Laerm;66534;52.370;4.832;2023-11-21T02:33:37;43.39;35.28;52.41;;
69668;Laerm;66534;52.370;4.832;2023-11-21T02:34:07;36.16;33.83;39.90;;
69668;Laerm;66534;52.370;4.832;2023-11-21T02:34:37;39.34;33.81;51.37;;
69668;Laerm;66534;52.370;4.832;2023-11-21T02:35:09;37.66;34.76;44.10;;
69668;Laerm;66534;52.370;4.832;2023-11-21T02:35:39;38.33;35.20;44.54;;
69668;Laerm;66534;52.370;4.832;2023-11-21T02:36:10;41.08;35.15;48.56;;
69668;Laerm;66534;52.370;4.832;2023-11-21T02:36:40;41.93;35.87;49.85;;
69668;Laerm;66534;52.370;4.832;2023-11-21T02:37:10;38.40;35.70;42.54;;
69668;Laerm;66534;52.370;4.832;2023-11-21T02:37:41;42.63;37.08;49.62;;
69668;Laerm;66534;52.370;4.832;2023-11-21T02:38:11;39.87;36.28;47.07;;
69668;Laerm;66534;52.370;4.832;2023-11-21T02:38:42;38.79;35.24;42.57;;
69668;Laerm;66534;52.370;4.832;2023-11-21T02:39:12;40.87;36.72;45.69;;
69668;Laerm;66534;52.370;4.832;2023-11-21T02:39:43;42.27;37.48;47.51;;
69668;Laerm;66534;52.370;4.832;2023-11-21T02:40:13;42.96;36.84;48.84;;
69668;Laerm;66534;52.370;4.832;2023-11-21T02:40:47;38.79;35.66;46.95;;
69668;Laerm;66534;52.370;4.832;2023-11-21T02:41:19;37.31;34.57;45.88;;
69668;Laerm;66534;52.370;4.832;2023-11-21T02:41:49;39.40;34.81;45.35;;
69668;Laerm;66534;52.370;4.832;2023-11-21T02:42:20;41.60;35.76;52.37;;
69668;Laerm;66534;52.370;4.832;2023-11-21T02:42:50;41.17;37.41;50.64;;
69668;Laerm;66534;52.370;4.832;2023-11-21T02:43:21;40.66;36.61;47.59;;
69668;Laerm;66534;52.370;4.832;2023-11-21T02:43:51;41.77;36.50;49.45;;
69668;Laerm;66534;52.370;4.832;2023-11-21T02:44:21;40.32;38.11;45.30;;
69668;Laerm;66534;52.370;4.832;2023-11-21T02:44:52;40.80;37.51;48.42;;
69668;Laerm;66534;52.370;4.832;2023-11-21T02:45:22;40.62;37.50;45.75;;
69668;Laerm;66534;52.370;4.832;2023-11-21T02:45:52;40.77;37.35;45.73;;
69668;Laerm;66534;52.370;4.832;2023-11-21T02:46:23;40.22;35.40;46.74;;
69668;Laerm;66534;52.370;4.832;2023-11-21T02:46:53;39.34;35.22;49.36;;
69668;Laerm;66534;52.370;4.832;2023-11-21T02:47:23;38.78;35.83;43.09;;
69668;Laerm;66534;52.370;4.832;2023-11-21T02:47:53;38.58;34.81;48.42;;
69668;Laerm;66534;52.370;4.832;2023-11-21T02:48:25;39.39;34.41;59.43;;
69668;Laerm;66534;52.370;4.832;2023-11-21T02:48:55;37.45;34.44;48.33;;
69668;Laerm;66534;52.370;4.832;2023-11-21T02:49:26;41.89;36.56;51.62;;
69668;Laerm;66534;52.370;4.832;2023-11-21T02:49:58;37.15;35.18;41.02;;
69668;Laerm;66534;52.370;4.832;2023-11-21T02:50:28;36.71;34.22;45.04;;
69668;Laerm;66534;52.370;4.832;2023-11-21T02:50:59;36.48;34.56;42.78;;
69668;Laerm;66534;52.370;4.832;2023-11-21T02:51:30;40.02;35.20;49.63;;
69668;Laerm;66534;52.370;4.832;2023-11-21T02:52:00;43.23;37.92;50.72;;
69668;Laerm;66534;52.370;4.832;2023-11-21T02:52:31;42.25;36.69;48.02;;